sensor_id;sensor_type;location;lat;lon;timestamp;P1;durP1;ratioP1;P2;durP2;ratioP2
75922;SDS011;64602;47.542;19.090;2023-03-23T07:11:32;26.27;;;14.52;;
75922;SDS011;64602;47.542;19.090;2023-03-23T07:16:33;27.55;;;15.90;;
75922;SDS011;64602;47.542;19.090;2023-03-23T07:21:34;18.90;;;10.93;;
75922;SDS011;64602;47.542;19.090;2023-03-23T07:26:36;17.55;;;10.50;;
75922;SDS011;64602;47.542;19.090;2023-03-23T07:31:38;20.17;;;10.45;;
75922;SDS011;64602;47.542;19.090;2023-03-23T07:36:39;17.13;;;9.80;;
75922;SDS011;64602;47.542;19.090;2023-03-23T07:41:40;18.62;;;10.55;;
75922;SDS011;64602;47.542;19.090;2023-03-23T07:46:41;18.42;;;10.15;;
75922;SDS011;64602;47.542;19.090;2023-03-23T07:51:43;22.20;;;10.43;;
75922;SDS011;64602;47.542;19.090;2023-03-23T07:56:45;16.97;;;10.00;;
75922;SDS011;64602;47.542;19.090;2023-03-23T08:01:46;20.05;;;10.88;;
75922;SDS011;64602;47.542;19.090;2023-03-23T08:06:47;22.85;;;11.45;;
75922;SDS011;64602;47.542;19.090;2023-03-23T08:11:48;21.50;;;10.40;;
75922;SDS011;64602;47.542;19.090;2023-03-23T08:16:50;18.52;;;10.52;;
75922;SDS011;64602;47.542;19.090;2023-03-23T08:21:51;24.80;;;10.35;;
75922;SDS011;64602;47.542;19.090;2023-03-23T08:26:52;17.17;;;9.93;;
75922;SDS011;64602;47.542;19.090;2023-03-23T08:31:54;18.08;;;10.10;;
75922;SDS011;64602;47.542;19.090;2023-03-23T08:36:55;18.33;;;10.07;;
75922;SDS011;64602;47.542;19.090;2023-03-23T08:41:56;22.50;;;10.83;;
75922;SDS011;64602;47.542;19.090;2023-03-23T08:46:57;20.70;;;11.52;;
75922;SDS011;64602;47.542;19.090;2023-03-23T08:51:59;16.33;;;9.38;;
75922;SDS011;64602;47.542;19.090;2023-03-23T08:57:00;18.60;;;9.67;;
75922;SDS011;64602;47.542;19.090;2023-03-23T09:02:02;18.55;;;9.02;;
75922;SDS011;64602;47.542;19.090;2023-03-23T09:07:03;16.60;;;7.90;;
75922;SDS011;64602;47.542;19.090;2023-03-23T09:12:04;13.10;;;7.47;;
75922;SDS011;64602;47.542;19.090;2023-03-23T09:17:06;14.63;;;8.60;;
75922;SDS011;64602;47.542;19.090;2023-03-23T09:22:07;15.55;;;7.60;;
75922;SDS011;64602;47.542;19.090;2023-03-23T09:27:09;12.45;;;7.40;;
75922;SDS011;64602;47.542;19.090;2023-03-23T09:32:10;15.60;;;7.63;;
75922;SDS011;64602;47.542;19.090;2023-03-23T09:37:13;13.00;;;7.47;;
75922;SDS011;64602;47.542;19.090;2023-03-23T09:42:18;13.57;;;7.65;;
75922;SDS011;64602;47.542;19.090;2023-03-23T09:47:30;14.13;;;7.33;;
75922;SDS011;64602;47.542;19.090;2023-03-23T09:52:54;13.57;;;8.20;;
75922;SDS011;64602;47.542;19.090;2023-03-23T09:57:59;11.65;;;6.93;;
75922;SDS011;64602;47.542;19.090;2023-03-23T10:03:21;10.97;;;6.33;;
75922;SDS011;64602;47.542;19.090;2023-03-23T10:08:28;12.25;;;6.90;;
75922;SDS011;64602;47.542;19.090;2023-03-23T10:24:23;11.18;;;7.30;;
75922;SDS011;64602;47.542;19.090;2023-03-23T10:29:36;11.40;;;7.00;;
75922;SDS011;64602;47.542;19.090;2023-03-23T10:34:45;12.03;;;6.57;;
75922;SDS011;64602;47.542;19.090;2023-03-23T10:39:52;10.60;;;6.60;;
75922;SDS011;64602;47.542;19.090;2023-03-23T10:44:56;8.52;;;4.18;;
75922;SDS011;64602;47.542;19.090;2023-03-23T10:50:02;14.90;;;8.00;;
75922;SDS011;64602;47.542;19.090;2023-03-23T10:55:16;22.83;;;9.67;;
75922;SDS011;64602;47.542;19.090;2023-03-23T11:00:20;10.50;;;6.75;;
75922;SDS011;64602;47.542;19.090;2023-03-23T11:05:32;11.65;;;6.47;;
75922;SDS011;64602;47.542;19.090;2023-03-23T11:10:38;12.07;;;6.63;;
75922;SDS011;64602;47.542;19.090;2023-03-23T11:15:48;8.93;;;5.97;;
75922;SDS011;64602;47.542;19.090;2023-03-23T11:20:52;10.48;;;5.68;;
75922;SDS011;64602;47.542;19.090;2023-03-23T11:25:59;7.50;;;4.50;;
75922;SDS011;64602;47.542;19.090;2023-03-23T11:31:02;6.93;;;3.20;;
75922;SDS011;64602;47.542;19.090;2023-03-23T11:36:06;8.75;;;4.00;;
75922;SDS011;64602;47.542;19.090;2023-03-23T11:41:12;5.25;;;2.80;;
75922;SDS011;64602;47.542;19.090;2023-03-23T11:46:36;6.10;;;2.53;;
75922;SDS011;64602;47.542;19.090;2023-03-23T11:52:02;6.87;;;3.25;;
75922;SDS011;64602;47.542;19.090;2023-03-23T11:57:22;6.87;;;3.37;;
75922;SDS011;64602;47.542;19.090;2023-03-23T12:02:42;5.13;;;3.07;;
75922;SDS011;64602;47.542;19.090;2023-03-23T12:24:02;6.70;;;3.50;;
75922;SDS011;64602;47.542;19.090;2023-03-23T12:35:07;6.80;;;2.50;;
75922;SDS011;64602;47.542;19.090;2023-03-23T12:56:22;4.60;;;2.60;;
75922;SDS011;64602;47.542;19.090;2023-03-23T13:01:25;5.07;;;2.03;;
75922;SDS011;64602;47.542;19.090;2023-03-23T13:06:41;3.65;;;2.30;;
75922;SDS011;64602;47.542;19.090;2023-03-23T13:11:43;4.90;;;2.10;;
75922;SDS011;64602;47.542;19.090;2023-03-23T13:16:50;5.73;;;2.27;;
75922;SDS011;64602;47.542;19.090;2023-03-23T13:22:18;3.60;;;2.08;;
75922;SDS011;64602;47.542;19.090;2023-03-23T13:27:26;6.43;;;2.20;;
75922;SDS011;64602;47.542;19.090;2023-03-23T13:32:35;4.47;;;2.00;;
75922;SDS011;64602;47.542;19.090;2023-03-23T13:37:45;6.25;;;2.08;;
75922;SDS011;64602;47.542;19.090;2023-03-23T13:42:49;4.95;;;2.08;;
75922;SDS011;64602;47.542;19.090;2023-03-23T13:53:43;4.82;;;2.10;;
75922;SDS011;64602;47.542;19.090;2023-03-23T13:58:50;4.18;;;1.90;;
75922;SDS011;64602;47.542;19.090;2023-03-23T14:03:56;3.73;;;2.10;;
75922;SDS011;64602;47.542;19.090;2023-03-23T14:09:04;5.53;;;2.00;;
75922;SDS011;64602;47.542;19.090;2023-03-23T14:14:27;6.30;;;2.45;;
75922;SDS011;64602;47.542;19.090;2023-03-23T14:19:32;6.15;;;2.10;;
75922;SDS011;64602;47.542;19.090;2023-03-23T14:24:39;7.90;;;2.10;;
75922;SDS011;64602;47.542;19.090;2023-03-23T14:29:41;5.25;;;2.50;;
75922;SDS011;64602;47.542;19.090;2023-03-23T14:34:42;4.20;;;1.90;;
75922;SDS011;64602;47.542;19.090;2023-03-23T14:39:45;4.67;;;2.00;;
75922;SDS011;64602;47.542;19.090;2023-03-23T14:44:49;4.72;;;2.45;;
75922;SDS011;64602;47.542;19.090;2023-03-23T14:49:52;5.18;;;2.20;;
75922;SDS011;64602;47.542;19.090;2023-03-23T14:55:10;6.63;;;2.40;;
75922;SDS011;64602;47.542;19.090;2023-03-23T15:00:22;9.90;;;2.70;;
75922;SDS011;64602;47.542;19.090;2023-03-23T15:05:35;8.02;;;2.28;;
75922;SDS011;64602;47.542;19.090;2023-03-23T15:10:41;7.10;;;2.60;;
75922;SDS011;64602;47.542;19.090;2023-03-23T15:15:43;3.87;;;1.90;;
75922;SDS011;64602;47.542;19.090;2023-03-23T15:20:48;5.97;;;2.30;;
75922;SDS011;64602;47.542;19.090;2023-03-23T15:25:50;5.35;;;2.40;;
75922;SDS011;64602;47.542;19.090;2023-03-23T15:30:53;5.13;;;2.53;;
75922;SDS011;64602;47.542;19.090;2023-03-23T15:35:58;6.65;;;4.30;;
75922;SDS011;64602;47.542;19.090;2023-03-23T15:41:00;8.60;;;3.50;;
75922;SDS011;64602;47.542;19.090;2023-03-23T15:46:23;6.87;;;3.00;;
75922;SDS011;64602;47.542;19.090;2023-03-23T15:51:28;4.03;;;2.33;;
75922;SDS011;64602;47.542;19.090;2023-03-23T15:56:30;5.00;;;2.20;;
75922;SDS011;64602;47.542;19.090;2023-03-23T16:01:31;5.30;;;2.40;;
75922;SDS011;64602;47.542;19.090;2023-03-23T16:06:34;8.17;;;2.30;;
75922;SDS011;64602;47.542;19.090;2023-03-23T16:11:37;5.05;;;2.30;;
75922;SDS011;64602;47.542;19.090;2023-03-23T16:16:41;5.32;;;2.37;;
75922;SDS011;64602;47.542;19.090;2023-03-23T16:21:48;5.70;;;2.50;;
75922;SDS011;64602;47.542;19.090;2023-03-23T16:26:50;4.85;;;2.17;;
75922;SDS011;64602;47.542;19.090;2023-03-23T16:31:52;6.97;;;2.30;;
75922;SDS011;64602;47.542;19.090;2023-03-23T16:36:55;5.10;;;2.20;;
75922;SDS011;64602;47.542;19.090;2023-03-23T16:41:57;4.82;;;2.50;;
75922;SDS011;64602;47.542;19.090;2023-03-23T16:46:59;7.55;;;2.40;;
75922;SDS011;64602;47.542;19.090;2023-03-23T16:52:01;3.83;;;2.20;;
75922;SDS011;64602;47.542;19.090;2023-03-23T16:57:03;10.00;;;2.67;;
75922;SDS011;64602;47.542;19.090;2023-03-23T17:02:05;6.03;;;2.20;;
75922;SDS011;64602;47.542;19.090;2023-03-23T17:07:07;7.25;;;2.20;;
75922;SDS011;64602;47.542;19.090;2023-03-23T17:12:10;6.30;;;2.43;;
75922;SDS011;64602;47.542;19.090;2023-03-23T17:17:12;5.03;;;2.50;;
75922;SDS011;64602;47.542;19.090;2023-03-23T17:22:14;7.87;;;2.60;;
75922;SDS011;64602;47.542;19.090;2023-03-23T17:27:17;8.57;;;3.10;;
75922;SDS011;64602;47.542;19.090;2023-03-23T17:32:21;4.55;;;2.35;;
75922;SDS011;64602;47.542;19.090;2023-03-23T17:37:25;5.72;;;2.72;;
75922;SDS011;64602;47.542;19.090;2023-03-23T17:42:28;6.47;;;2.80;;
75922;SDS011;64602;47.542;19.090;2023-03-23T17:47:30;8.63;;;4.27;;
75922;SDS011;64602;47.542;19.090;2023-03-23T17:52:32;7.20;;;3.25;;
75922;SDS011;64602;47.542;19.090;2023-03-23T17:57:35;6.68;;;2.85;;
75922;SDS011;64602;47.542;19.090;2023-03-23T18:02:37;6.57;;;4.30;;
75922;SDS011;64602;47.542;19.090;2023-03-23T18:07:40;6.35;;;3.37;;
75922;SDS011;64602;47.542;19.090;2023-03-23T18:12:42;6.07;;;3.50;;
75922;SDS011;64602;47.542;19.090;2023-03-23T18:17:44;5.47;;;3.33;;
75922;SDS011;64602;47.542;19.090;2023-03-23T18:22:49;7.45;;;3.42;;
75922;SDS011;64602;47.542;19.090;2023-03-23T18:27:51;7.28;;;3.55;;
75922;SDS011;64602;47.542;19.090;2023-03-23T18:32:53;7.70;;;3.77;;
75922;SDS011;64602;47.542;19.090;2023-03-23T18:37:56;7.27;;;3.83;;
75922;SDS011;64602;47.542;19.090;2023-03-23T18:42:58;7.90;;;4.12;;
75922;SDS011;64602;47.542;19.090;2023-03-23T18:48:01;8.88;;;4.60;;
75922;SDS011;64602;47.542;19.090;2023-03-23T18:53:04;9.13;;;4.43;;
75922;SDS011;64602;47.542;19.090;2023-03-23T18:58:07;8.60;;;4.70;;
75922;SDS011;64602;47.542;19.090;2023-03-23T19:03:10;7.20;;;4.80;;
75922;SDS011;64602;47.542;19.090;2023-03-23T19:08:13;7.07;;;4.70;;
75922;SDS011;64602;47.542;19.090;2023-03-23T19:13:15;9.50;;;4.78;;
75922;SDS011;64602;47.542;19.090;2023-03-23T19:18:19;10.88;;;5.05;;
75922;SDS011;64602;47.542;19.090;2023-03-23T19:23:22;10.97;;;4.73;;
75922;SDS011;64602;47.542;19.090;2023-03-23T19:28:24;10.83;;;5.93;;
75922;SDS011;64602;47.542;19.090;2023-03-23T19:33:29;12.60;;;6.75;;
75922;SDS011;64602;47.542;19.090;2023-03-23T19:38:31;14.93;;;7.55;;
75922;SDS011;64602;47.542;19.090;2023-03-23T19:43:34;16.57;;;7.63;;
75922;SDS011;64602;47.542;19.090;2023-03-23T19:48:38;10.73;;;6.57;;
75922;SDS011;64602;47.542;19.090;2023-03-23T19:53:40;13.15;;;7.05;;
75922;SDS011;64602;47.542;19.090;2023-03-23T19:58:43;13.93;;;7.60;;
75922;SDS011;64602;47.542;19.090;2023-03-23T20:03:46;16.67;;;7.62;;
75922;SDS011;64602;47.542;19.090;2023-03-23T20:08:48;14.68;;;7.45;;
75922;SDS011;64602;47.542;19.090;2023-03-23T20:13:51;13.10;;;6.70;;
75922;SDS011;64602;47.542;19.090;2023-03-23T20:18:53;14.17;;;7.17;;
75922;SDS011;64602;47.542;19.090;2023-03-23T20:23:56;11.85;;;6.97;;
75922;SDS011;64602;47.542;19.090;2023-03-23T20:28:59;15.77;;;7.20;;
75922;SDS011;64602;47.542;19.090;2023-03-23T20:34:12;16.47;;;7.93;;
